Airfield :
LOGIN :

Register | Disclaimer

   EN    FR    IT 

 










Legend :    VFR   Marginal VFR   IFR   Intensive IFR   Very Intensive IFR
Visi :
Ceiling :
>= 8 km
>= 3000ft
5 to 8 km
1000 to 3000 ft
1500m to 5 km
500 to 1000 ft
800 to 1500m
200 to 500 ft
< 800m
< 200 ft
Symbols :   Thunderstorms  Fog  Heavy snow  Heavy precipitations  Wind > 20 kt
SIGMETs :     Misc.  Thunderstorms  Icing  Turbulence  Mountain Waves  Volcanic Ashes






- Airport Elevation : 273 ft


EGXT - RAF Wittering Stamford

CURRENT METAR :
  • 221550Z AUTO 24004KT 9999 SCT041/// 13/07 Q1021

EXPIRED METARs :
  • 221520Z 24007KT 9999 SCT041 13/06 Q1021 RMK BLU
  • 221450Z 23007KT 9999 BKN039 12/06 Q1021 BLU
  • 221420Z 23009KT 9999 BKN038 13/06 Q1021 RMK BLU
  • 221350Z 24010KT 9999 FEW030 BKN037 13/06 Q1021 RMK BLU

TAF TAF EGXT
Valid from the 22 at 15:00 until the 22 at 18:00 UTC


221350Z 2215/2218 21010KT 9999 FEW035



MET'MAP, your aeronautical weather chart ! - Copyright ORBIFLY December 2007 - Disclaimer

ORBIFLY MET'MAP TEAM :

Programming & Development : Alexandra Zaïnal
Concept & Development : Baudouin d'Aumeries
Co-Development & Prog : Marc-Olivier Méhu
Technical & hardware support : Manuel Goepfert

Contact : metmap@orbifly.com




SOURCES & CREDITS :

   NOAA